createdAt,value
2023-03-17T00:00:40.900Z,57.54
2023-03-17T00:01:40.890Z,57.54
2023-03-17T00:02:40.929Z,57.33
2023-03-17T00:03:40.972Z,56.82
2023-03-17T00:04:45.887Z,57.84
2023-03-17T00:05:40.844Z,57.23
2023-03-17T00:06:40.838Z,57.43
2023-03-17T00:07:40.823Z,57.23
2023-03-17T00:08:40.822Z,57.33
2023-03-17T00:09:40.811Z,57.13
2023-03-17T00:10:40.795Z,57.13
2023-03-17T00:11:40.817Z,57.36
2023-03-17T00:12:40.768Z,57.56
2023-03-17T00:13:40.764Z,57.56
2023-03-17T00:14:40.769Z,57.13
2023-03-17T00:15:45.782Z,58.05
2023-03-17T00:16:40.730Z,57.75
2023-03-17T00:17:40.713Z,57.43
2023-03-17T00:18:40.722Z,56.82
2023-03-17T00:19:40.688Z,58.05
2023-03-17T00:20:40.677Z,56.71
2023-03-17T00:21:40.667Z,57.56
2023-03-17T00:22:40.661Z,57.54
2023-03-17T00:23:40.671Z,57.05
2023-03-17T00:24:40.634Z,57.43
2023-03-17T00:25:40.623Z,57.13
2023-03-17T00:26:45.649Z,56.82
2023-03-17T00:27:40.600Z,57.43
2023-03-17T00:28:40.596Z,57.54
2023-03-17T00:29:40.590Z,57.26
2023-03-17T00:30:40.689Z,57.54
2023-03-17T00:31:40.633Z,57.54
2023-03-17T00:32:40.595Z,57.15
2023-03-17T00:33:40.544Z,56.82
2023-03-17T00:34:40.528Z,58.05
2023-03-17T00:35:40.612Z,57.75
2023-03-17T00:36:40.506Z,57.77
2023-03-17T00:37:45.518Z,57.67
2023-03-17T00:38:40.492Z,57.43
2023-03-17T00:39:40.471Z,57.87
2023-03-17T00:40:40.453Z,57.43
2023-03-17T00:41:40.443Z,57.75
2023-03-17T00:42:40.440Z,57.77
2023-03-17T00:43:40.430Z,58.07
2023-03-17T00:44:40.459Z,57.84
2023-03-17T00:45:40.397Z,57.87
2023-03-17T00:46:40.428Z,57.98
2023-03-17T00:47:40.375Z,58.39
2023-03-17T00:48:45.409Z,58.28
2023-03-17T00:49:40.352Z,58.69
2023-03-17T00:50:40.340Z,58.07
2023-03-17T00:51:40.326Z,58.18
2023-03-17T00:52:40.318Z,58.39
2023-03-17T00:53:40.338Z,57.98
2023-03-17T00:54:40.335Z,58.46
2023-03-17T00:55:40.285Z,58.49
2023-03-17T00:56:40.279Z,58.39
2023-03-17T00:57:40.286Z,58.28
2023-03-17T00:58:40.257Z,58.59
2023-03-17T00:59:45.274Z,58.49
2023-03-17T01:00:40.319Z,58.59
2023-03-17T01:01:40.235Z,58.69
2023-03-17T01:02:40.226Z,58.18
2023-03-17T01:03:40.201Z,58.39
2023-03-17T01:04:40.196Z,58.39
2023-03-17T01:05:40.177Z,59.20
2023-03-17T01:06:40.187Z,58.90
2023-03-17T01:07:40.172Z,59.20
2023-03-17T01:08:40.146Z,59.23
2023-03-17T01:09:40.140Z,59.64
2023-03-17T01:10:45.148Z,59.64
2023-03-17T01:11:40.104Z,59.13
2023-03-17T01:12:40.113Z,59.13
2023-03-17T01:13:40.080Z,58.83
2023-03-17T01:14:40.083Z,59.64
2023-03-17T01:15:40.058Z,59.64
2023-03-17T01:16:40.117Z,59.64
2023-03-17T01:17:40.037Z,59.64
2023-03-17T01:18:40.150Z,59.23
2023-03-17T01:19:40.031Z,60.05
2023-03-17T01:20:40.016Z,59.85
2023-03-17T01:21:45.018Z,60.26
2023-03-17T01:22:39.984Z,60.05
2023-03-17T01:23:39.968Z,59.54
2023-03-17T01:24:39.985Z,59.54
2023-03-17T01:25:39.948Z,59.85
2023-03-17T01:26:39.945Z,59.95
2023-03-17T01:27:39.934Z,59.85
2023-03-17T01:28:39.917Z,59.85
2023-03-17T01:29:39.916Z,59.85
2023-03-17T01:30:39.906Z,59.54
2023-03-17T01:31:39.969Z,59.64
2023-03-17T01:32:44.972Z,60.26
2023-03-17T01:33:39.858Z,60.05
2023-03-17T01:34:39.893Z,60.05
2023-03-17T01:35:39.844Z,60.16
2023-03-17T01:36:39.836Z,59.95
2023-03-17T01:37:39.814Z,60.36
2023-03-17T01:38:39.817Z,59.85
2023-03-17T01:39:39.803Z,59.95
2023-03-17T01:40:39.779Z,59.67
2023-03-17T01:41:39.777Z,60.05
2023-03-17T01:42:39.762Z,60.05
2023-03-17T01:43:44.787Z,60.16
2023-03-17T01:44:39.758Z,59.88
2023-03-17T01:45:39.758Z,60.05
2023-03-17T01:46:39.718Z,60.16
2023-03-17T01:47:39.749Z,59.88
2023-03-17T01:48:39.693Z,59.88
2023-03-17T01:49:39.694Z,60.16
2023-03-17T01:50:39.701Z,60.26
2023-03-17T01:51:39.665Z,59.88
2023-03-17T01:52:39.663Z,60.26
2023-03-17T01:53:39.654Z,60.29
2023-03-17T01:54:44.674Z,60.49
2023-03-17T01:55:39.613Z,60.39
2023-03-17T01:56:39.611Z,60.19
2023-03-17T01:57:39.609Z,60.26
2023-03-17T01:58:39.628Z,59.98
2023-03-17T01:59:39.589Z,59.88
2023-03-17T02:00:39.657Z,59.67
2023-03-17T02:01:39.564Z,60.36
2023-03-17T02:02:39.548Z,60.19
2023-03-17T02:03:39.566Z,60.60
2023-03-17T02:04:39.602Z,60.29
2023-03-17T02:05:44.548Z,60.39
2023-03-17T02:06:55.010Z,60.08
2023-03-17T02:07:40.481Z,60.49
2023-03-17T02:08:39.591Z,60.60
2023-03-17T02:09:39.573Z,61.21
2023-03-17T02:10:39.470Z,61.11
2023-03-17T02:11:39.483Z,60.91
2023-03-17T02:12:39.441Z,60.91
2023-03-17T02:13:39.424Z,61.11
2023-03-17T02:14:39.541Z,61.24
2023-03-17T02:15:39.580Z,61.32
2023-03-17T02:16:44.471Z,60.91
2023-03-17T02:17:39.369Z,61.62
2023-03-17T02:18:39.384Z,61.11
2023-03-17T02:19:39.385Z,61.83
2023-03-17T02:20:39.369Z,61.83
2023-03-17T02:21:39.358Z,61.62
2023-03-17T02:22:39.335Z,61.42
2023-03-17T02:23:39.359Z,61.32
2023-03-17T02:24:39.341Z,61.52
2023-03-17T02:25:39.294Z,61.00
2023-03-17T02:26:39.288Z,61.21
2023-03-17T02:27:44.300Z,61.62
2023-03-17T02:28:39.278Z,61.52
2023-03-17T02:29:39.370Z,61.42
2023-03-17T02:30:39.301Z,61.52
2023-03-17T02:31:39.222Z,61.65
2023-03-17T02:32:39.337Z,61.55
2023-03-17T02:33:39.234Z,61.24
2023-03-17T02:34:39.235Z,61.24
2023-03-17T02:35:39.215Z,61.76
2023-03-17T02:36:39.319Z,61.65
2023-03-17T02:37:39.193Z,62.06
2023-03-17T02:38:44.165Z,61.96
2023-03-17T02:39:39.147Z,61.96
2023-03-17T02:40:39.325Z,62.68
2023-03-17T02:41:39.124Z,62.92
2023-03-17T02:42:39.096Z,62.37
2023-03-17T02:43:39.170Z,62.71
2023-03-17T02:44:39.100Z,62.51
2023-03-17T02:45:39.208Z,62.81
2023-03-17T02:46:39.059Z,62.60
2023-03-17T02:47:39.039Z,62.60
2023-03-17T02:48:39.027Z,63.43
2023-03-17T02:49:44.054Z,63.74
2023-03-17T02:50:39.017Z,63.97
2023-03-17T02:51:39.000Z,64.48
2023-03-17T02:52:38.980Z,64.07
2023-03-17T02:53:38.996Z,63.84
2023-03-17T02:54:38.962Z,64.18
2023-03-17T02:55:38.980Z,64.48
2023-03-17T02:56:38.951Z,64.90
2023-03-17T02:57:38.933Z,64.18
2023-03-17T02:58:38.916Z,65.11
2023-03-17T02:59:38.904Z,65.31
2023-03-17T03:00:43.925Z,64.31
2023-03-17T03:01:38.970Z,64.41
2023-03-17T03:02:38.940Z,63.87
2023-03-17T03:03:38.864Z,64.31
2023-03-17T03:04:38.849Z,63.76
2023-03-17T03:05:38.852Z,63.97
2023-03-17T03:06:38.828Z,63.67
2023-03-17T03:07:38.881Z,64.07
2023-03-17T03:08:38.809Z,63.97
2023-03-17T03:09:38.814Z,65.41
2023-03-17T03:10:38.793Z,65.86
2023-03-17T03:11:43.799Z,66.67
2023-03-17T03:12:38.791Z,66.58
2023-03-17T03:13:38.760Z,67.43
2023-03-17T03:14:38.742Z,67.43
2023-03-17T03:15:38.787Z,67.12
2023-03-17T03:16:38.712Z,67.12
2023-03-17T03:17:38.711Z,67.02
2023-03-17T03:18:38.710Z,67.63
2023-03-17T03:19:38.712Z,68.15
2023-03-17T03:20:38.701Z,67.77
2023-03-17T03:21:38.662Z,68.39
2023-03-17T03:22:43.666Z,67.66
2023-03-17T03:23:38.636Z,67.66
2023-03-17T03:24:38.622Z,67.57
2023-03-17T03:25:38.664Z,67.66
2023-03-17T03:26:38.603Z,66.22
2023-03-17T03:27:38.604Z,67.77
2023-03-17T03:28:38.585Z,67.12
2023-03-17T03:29:38.572Z,68.80
2023-03-17T03:30:38.559Z,68.70
2023-03-17T03:31:38.561Z,68.59
2023-03-17T03:32:38.590Z,68.90
2023-03-17T03:33:43.557Z,69.14
2023-03-17T03:34:38.515Z,69.65
2023-03-17T03:35:38.544Z,69.55
2023-03-17T03:36:38.503Z,70.62
2023-03-17T03:37:38.480Z,71.13
2023-03-17T03:38:38.467Z,71.23
2023-03-17T03:39:38.455Z,71.23
2023-03-17T03:40:38.471Z,70.82
2023-03-17T03:41:38.467Z,70.86
2023-03-17T03:42:38.424Z,71.34
2023-03-17T03:43:38.416Z,71.89
2023-03-17T03:44:43.426Z,71.16
2023-03-17T03:45:38.387Z,71.26
2023-03-17T03:46:38.422Z,71.47
2023-03-17T03:47:38.367Z,71.99
2023-03-17T03:48:38.404Z,73.12
2023-03-17T03:49:38.344Z,73.68
2023-03-17T03:50:38.332Z,73.68
2023-03-17T03:51:38.350Z,73.68
2023-03-17T03:52:38.324Z,72.95
2023-03-17T03:53:38.304Z,73.57
2023-03-17T03:54:38.290Z,73.47
2023-03-17T03:55:43.299Z,74.08
2023-03-17T03:56:38.275Z,73.26
2023-03-17T03:57:38.312Z,73.81
2023-03-17T03:58:38.242Z,73.77
2023-03-17T03:59:38.238Z,73.57
2023-03-17T04:00:38.220Z,73.26
2023-03-17T04:01:38.241Z,73.47
2023-03-17T04:02:38.258Z,73.36
2023-03-17T04:03:38.195Z,73.68
2023-03-17T04:04:38.204Z,74.19
2023-03-17T04:05:38.175Z,73.81
2023-03-17T04:06:43.187Z,73.88
2023-03-17T04:07:38.149Z,73.88
2023-03-17T04:08:38.150Z,75.26
2023-03-17T04:09:38.118Z,74.95
2023-03-17T04:10:38.107Z,75.77
2023-03-17T04:11:38.116Z,75.57
2023-03-17T04:12:38.087Z,75.87
2023-03-17T04:13:38.111Z,75.46
2023-03-17T04:14:38.072Z,75.70
2023-03-17T04:15:38.052Z,75.46
2023-03-17T04:16:38.057Z,75.57
2023-03-17T04:17:43.050Z,76.01
2023-03-17T04:18:38.096Z,76.53
2023-03-17T04:19:38.007Z,76.81
2023-03-17T04:20:37.998Z,76.60
2023-03-17T04:21:37.995Z,76.90
2023-03-17T04:22:37.974Z,76.84
2023-03-17T04:23:37.966Z,77.15
2023-03-17T04:24:37.967Z,77.15
2023-03-17T04:25:37.940Z,77.04
2023-03-17T04:26:37.945Z,77.36
2023-03-17T04:27:37.922Z,77.25
2023-03-17T04:28:42.953Z,77.15
2023-03-17T04:29:37.897Z,76.94
2023-03-17T04:30:37.905Z,78.08
2023-03-17T04:31:37.911Z,77.77
2023-03-17T04:32:37.888Z,77.77
2023-03-17T04:33:37.851Z,78.28
2023-03-17T04:34:37.847Z,78.08
2023-03-17T04:35:37.860Z,78.18
2023-03-17T04:36:37.842Z,78.42
2023-03-17T04:37:37.806Z,78.32
2023-03-17T04:38:37.795Z,78.53
2023-03-17T04:39:42.864Z,79.05
2023-03-17T04:40:37.778Z,78.94
2023-03-17T04:41:37.785Z,78.94
2023-03-17T04:42:37.764Z,79.19
2023-03-17T04:43:37.742Z,79.29
2023-03-17T04:44:37.750Z,79.29
2023-03-17T04:45:37.801Z,79.29
2023-03-17T04:46:37.729Z,79.60
2023-03-17T04:47:37.695Z,79.60
2023-03-17T04:48:37.722Z,79.49
2023-03-17T04:49:37.682Z,79.60
2023-03-17T04:50:42.685Z,80.32
2023-03-17T04:51:37.664Z,79.80
2023-03-17T04:52:37.639Z,80.32
2023-03-17T04:53:37.628Z,80.11
2023-03-17T04:54:37.619Z,80.11
2023-03-17T04:55:37.613Z,80.22
2023-03-17T04:56:37.610Z,80.74
2023-03-17T04:57:37.630Z,80.74
2023-03-17T04:58:37.573Z,80.94
2023-03-17T04:59:37.569Z,80.77
2023-03-17T05:00:37.576Z,80.67
2023-03-17T05:01:42.581Z,81.09
2023-03-17T05:02:37.582Z,81.05
2023-03-17T05:03:37.524Z,80.94
2023-03-17T05:04:37.508Z,80.15
2023-03-17T05:05:37.493Z,80.43
2023-03-17T05:06:37.500Z,79.80
2023-03-17T05:07:37.499Z,81.05
2023-03-17T05:08:37.461Z,80.63
2023-03-17T05:09:37.451Z,80.53
2023-03-17T05:10:37.448Z,80.01
2023-03-17T05:11:37.439Z,79.97
2023-03-17T05:12:42.443Z,80.60
2023-03-17T05:13:37.415Z,80.08
2023-03-17T05:14:37.406Z,80.60
2023-03-17T05:15:37.382Z,79.77
2023-03-17T05:16:37.421Z,79.77
2023-03-17T05:17:37.369Z,80.08
2023-03-17T05:18:37.351Z,79.97
2023-03-17T05:19:37.343Z,79.36
2023-03-17T05:20:37.330Z,80.22
2023-03-17T05:21:37.324Z,80.29
2023-03-17T05:22:37.308Z,80.18
2023-03-17T05:23:42.315Z,80.18
2023-03-17T05:24:37.288Z,80.29
2023-03-17T05:25:37.283Z,80.18
2023-03-17T05:26:37.272Z,80.29
2023-03-17T05:27:37.250Z,80.15
2023-03-17T05:28:37.251Z,80.39
2023-03-17T05:29:37.230Z,80.46
2023-03-17T05:30:37.236Z,80.08
2023-03-17T05:31:37.215Z,80.39
2023-03-17T05:32:37.308Z,79.87
2023-03-17T05:33:37.206Z,79.87
2023-03-17T05:34:42.196Z,80.49
2023-03-17T05:35:37.187Z,80.08
2023-03-17T05:36:37.162Z,80.29
2023-03-17T05:37:37.137Z,80.80
2023-03-17T05:38:37.131Z,80.94
2023-03-17T05:39:37.132Z,80.74
2023-03-17T05:40:37.110Z,80.74
2023-03-17T05:41:37.105Z,81.05
2023-03-17T05:42:37.083Z,80.94
2023-03-17T05:43:37.070Z,80.74
2023-03-17T05:44:37.068Z,80.74
2023-03-17T05:45:42.198Z,81.25
2023-03-17T05:46:37.155Z,81.15
2023-03-17T05:47:37.036Z,80.74
2023-03-17T05:48:37.039Z,81.05
2023-03-17T05:49:37.009Z,81.15
2023-03-17T05:50:37.000Z,81.56
2023-03-17T05:51:37.203Z,81.05
2023-03-17T05:52:36.980Z,81.70
2023-03-17T05:53:36.959Z,81.49
2023-03-17T05:54:36.949Z,81.81
2023-03-17T05:55:36.942Z,81.60
2023-03-17T05:56:41.954Z,81.91
2023-03-17T05:57:36.937Z,81.70
2023-03-17T05:58:36.915Z,81.70
2023-03-17T05:59:36.893Z,81.39
2023-03-17T06:00:36.884Z,81.60
2023-03-17T06:01:36.872Z,81.39
2023-03-17T06:02:36.957Z,81.70
2023-03-17T06:03:36.915Z,81.60
2023-03-17T06:04:36.869Z,81.60
2023-03-17T06:05:36.834Z,81.39
2023-03-17T06:06:36.819Z,81.29
2023-03-17T06:07:53.002Z,81.70
2023-03-17T06:08:37.803Z,81.81
2023-03-17T06:09:36.789Z,82.43
2023-03-17T06:10:36.781Z,82.39
2023-03-17T06:11:36.772Z,82.50
2023-03-17T06:12:36.764Z,82.53
2023-03-17T06:13:36.738Z,82.43
2023-03-17T06:14:36.745Z,82.08
2023-03-17T06:15:36.776Z,82.32
2023-03-17T06:16:36.717Z,81.19
2023-03-17T06:17:36.705Z,81.29
2023-03-17T06:18:41.710Z,82.32
2023-03-17T06:19:36.677Z,82.01
2023-03-17T06:20:36.804Z,81.81
2023-03-17T06:21:36.650Z,81.81
2023-03-17T06:22:36.661Z,82.01
2023-03-17T06:23:36.699Z,82.12
2023-03-17T06:24:36.618Z,82.32
2023-03-17T06:25:36.609Z,82.95
2023-03-17T06:26:36.595Z,82.74
2023-03-17T06:27:36.592Z,82.64
2023-03-17T06:28:36.581Z,82.95
2023-03-17T06:29:41.592Z,83.19
2023-03-17T06:30:38.793Z,82.78
2023-03-17T06:31:36.569Z,82.88
2023-03-17T06:32:36.598Z,82.78
2023-03-17T06:33:36.529Z,82.78
2023-03-17T06:34:36.516Z,82.74
2023-03-17T06:35:36.530Z,82.43
2023-03-17T06:36:38.582Z,82.88
2023-03-17T06:37:36.486Z,82.98
2023-03-17T06:38:36.495Z,82.32
2023-03-17T06:39:36.454Z,82.43
2023-03-17T06:40:41.473Z,82.32
2023-03-17T06:41:36.429Z,82.22
2023-03-17T06:42:36.444Z,81.60
2023-03-17T06:43:36.404Z,81.39
2023-03-17T06:44:36.413Z,81.09
2023-03-17T06:45:36.382Z,81.39
2023-03-17T06:46:36.460Z,81.60
2023-03-17T06:47:36.370Z,81.91
2023-03-17T06:48:36.352Z,81.46
2023-03-17T06:49:36.339Z,80.84
2023-03-17T06:50:36.350Z,80.22
2023-03-17T06:51:41.359Z,81.15
2023-03-17T06:52:36.323Z,81.15
2023-03-17T06:53:36.299Z,80.84
2023-03-17T06:54:36.296Z,81.05
2023-03-17T06:55:36.274Z,80.18
2023-03-17T06:56:36.272Z,80.90
2023-03-17T06:57:36.264Z,80.04
2023-03-17T06:58:36.243Z,80.04
2023-03-17T06:59:36.233Z,79.52
2023-03-17T07:00:36.227Z,79.94
2023-03-17T07:01:36.267Z,79.01
2023-03-17T07:02:41.231Z,78.39
2023-03-17T07:03:37.481Z,80.11
2023-03-17T07:04:36.238Z,78.94
2023-03-17T07:05:36.159Z,78.59
2023-03-17T07:06:36.163Z,78.69
2023-03-17T07:07:36.171Z,76.59
2023-03-17T07:08:36.165Z,75.56
2023-03-17T07:09:36.118Z,75.15
2023-03-17T07:10:36.102Z,75.18
2023-03-17T07:11:36.143Z,75.18
2023-03-17T07:12:36.092Z,75.60
2023-03-17T07:13:41.107Z,75.49
2023-03-17T07:14:36.075Z,75.29
2023-03-17T07:15:36.048Z,75.29
2023-03-17T07:16:36.084Z,75.18
2023-03-17T07:17:36.052Z,75.09
2023-03-17T07:18:36.028Z,74.67
2023-03-17T07:19:36.026Z,74.84
2023-03-17T07:20:35.990Z,74.74
2023-03-17T07:21:35.982Z,74.98
2023-03-17T07:22:35.992Z,74.98
2023-03-17T07:23:35.993Z,74.77
2023-03-17T07:24:40.972Z,74.57
2023-03-17T07:25:35.940Z,75.29
2023-03-17T07:26:35.975Z,75.60
2023-03-17T07:27:35.948Z,75.15
2023-03-17T07:28:35.926Z,75.56
2023-03-17T07:29:35.920Z,75.63
2023-03-17T07:30:35.885Z,74.50
2023-03-17T07:31:35.900Z,73.57
2023-03-17T07:32:35.922Z,73.68
2023-03-17T07:33:35.847Z,73.54
2023-03-17T07:34:35.836Z,73.54
2023-03-17T07:35:40.943Z,73.47
2023-03-17T07:36:35.814Z,73.57
2023-03-17T07:37:35.813Z,73.47
2023-03-17T07:38:35.790Z,72.61
2023-03-17T07:39:35.800Z,72.85
2023-03-17T07:40:35.773Z,72.92
2023-03-17T07:41:35.769Z,73.02
2023-03-17T07:42:35.759Z,72.81
2023-03-17T07:43:35.739Z,72.88
2023-03-17T07:44:35.732Z,72.61
2023-03-17T07:45:35.832Z,72.71
2023-03-17T07:46:40.722Z,72.92
2023-03-17T07:47:35.714Z,72.92
2023-03-17T07:48:35.685Z,72.68
2023-03-17T07:49:41.683Z,71.86
2023-03-17T07:50:35.668Z,72.06
2023-03-17T07:51:35.659Z,71.89
2023-03-17T07:52:35.648Z,71.58
2023-03-17T07:53:35.627Z,72.27
2023-03-17T07:54:35.641Z,71.65
2023-03-17T07:55:35.624Z,71.41
2023-03-17T07:56:35.595Z,71.41
2023-03-17T07:57:40.648Z,71.31
2023-03-17T07:58:35.577Z,71.07
2023-03-17T07:59:35.565Z,70.66
2023-03-17T08:00:35.967Z,69.94
2023-03-17T08:01:35.637Z,69.39
2023-03-17T08:02:35.550Z,69.56
2023-03-17T08:03:35.545Z,67.44
2023-03-17T08:04:35.524Z,66.87
2023-03-17T08:05:35.529Z,65.55
2023-03-17T08:06:35.501Z,63.85
2023-03-17T08:07:35.478Z,61.98
2023-03-17T08:08:40.483Z,61.19
2023-03-17T08:09:35.447Z,60.78
2023-03-17T08:10:35.988Z,60.72
2023-03-17T08:11:35.446Z,58.62
2023-03-17T08:12:35.453Z,58.42
2023-03-17T08:13:35.472Z,58.50
2023-03-17T08:14:35.388Z,56.56
2023-03-17T08:15:35.380Z,56.94
2023-03-17T08:16:35.441Z,56.88
2023-03-17T08:17:35.384Z,55.63
2023-03-17T08:18:35.373Z,56.17
2023-03-17T08:19:40.364Z,55.89
2023-03-17T08:20:35.657Z,56.63
2023-03-17T08:21:35.314Z,55.54
2023-03-17T08:22:35.305Z,55.79
2023-03-17T08:23:35.351Z,55.66
2023-03-17T08:24:35.305Z,55.18
2023-03-17T08:25:35.279Z,55.35
2023-03-17T08:26:35.316Z,54.94
2023-03-17T08:27:35.274Z,55.18
2023-03-17T08:28:35.246Z,55.26
2023-03-17T08:29:35.225Z,55.15
2023-03-17T08:30:40.913Z,54.18
2023-03-17T08:31:35.261Z,52.94
2023-03-17T08:32:35.278Z,53.55
2023-03-17T08:33:35.189Z,54.39
2023-03-17T08:34:35.171Z,53.44
2023-03-17T08:35:35.283Z,53.44
2023-03-17T08:36:35.143Z,52.94
2023-03-17T08:37:35.141Z,53.09
2023-03-17T08:38:35.132Z,54.26
2023-03-17T08:39:35.159Z,54.87
2023-03-17T08:40:35.159Z,55.15
2023-03-17T08:41:40.113Z,54.97
2023-03-17T08:42:35.085Z,55.26
2023-03-17T08:43:35.110Z,54.74
2023-03-17T08:44:35.063Z,53.72
2023-03-17T08:45:35.049Z,53.92
2023-03-17T08:46:35.061Z,54.54
2023-03-17T08:47:35.063Z,55.10
2023-03-17T08:48:35.055Z,55.02
2023-03-17T08:49:35.116Z,53.37
2023-03-17T08:50:35.022Z,52.76
2023-03-17T08:51:34.979Z,53.19
2023-03-17T08:52:39.987Z,53.29
2023-03-17T08:53:35.184Z,53.59
2023-03-17T08:54:34.965Z,53.90
2023-03-17T08:55:34.936Z,53.16
2023-03-17T08:56:34.956Z,53.29
2023-03-17T08:57:34.952Z,50.81
2023-03-17T08:58:34.959Z,49.76
2023-03-17T08:59:34.931Z,49.03
2023-03-17T09:00:34.882Z,49.21
2023-03-17T09:01:35.034Z,48.50
2023-03-17T09:02:34.913Z,47.63
2023-03-17T09:03:39.885Z,48.67
2023-03-17T09:04:34.832Z,49.53
2023-03-17T09:05:38.082Z,49.35
2023-03-17T09:06:34.809Z,50.82
2023-03-17T09:07:34.904Z,50.82
2023-03-17T09:08:34.795Z,51.10
2023-03-17T09:09:34.810Z,51.23
2023-03-17T09:10:34.766Z,51.03
2023-03-17T09:11:34.771Z,50.84
2023-03-17T09:12:34.747Z,50.64
2023-03-17T09:13:34.775Z,51.89
2023-03-17T09:14:43.966Z,52.60
2023-03-17T09:15:34.792Z,52.40
2023-03-17T09:16:34.767Z,51.97
2023-03-17T09:17:34.713Z,51.74
2023-03-17T09:18:34.683Z,51.97
2023-03-17T09:19:34.689Z,51.53
2023-03-17T09:20:34.653Z,51.74
2023-03-17T09:21:34.641Z,51.66
2023-03-17T09:22:34.636Z,51.46
2023-03-17T09:23:34.635Z,52.81
2023-03-17T09:24:34.607Z,52.70
2023-03-17T09:25:39.618Z,51.38
2023-03-17T09:26:34.580Z,52.27
2023-03-17T09:27:34.580Z,51.46
2023-03-17T09:28:34.568Z,51.97
2023-03-17T09:29:34.554Z,51.94
2023-03-17T09:30:34.556Z,51.74
2023-03-17T09:31:34.608Z,51.43
2023-03-17T09:32:34.555Z,51.33
2023-03-17T09:33:34.522Z,50.59
2023-03-17T09:34:34.491Z,51.31
2023-03-17T09:35:34.512Z,50.98
2023-03-17T09:36:39.620Z,50.67
2023-03-17T09:37:34.501Z,49.98
2023-03-17T09:38:34.450Z,51.20
2023-03-17T09:39:34.437Z,51.39
2023-03-17T09:40:35.037Z,50.73
2023-03-17T09:41:34.417Z,49.10
2023-03-17T09:42:34.413Z,47.75
2023-03-17T09:43:34.412Z,47.94
2023-03-17T09:44:34.379Z,47.10
2023-03-17T09:45:34.377Z,46.70
2023-03-17T09:46:34.430Z,45.89
2023-03-17T09:47:41.080Z,45.68
2023-03-17T09:48:34.346Z,45.89
2023-03-17T09:49:34.320Z,45.17
2023-03-17T09:50:34.328Z,44.87
2023-03-17T09:51:34.305Z,44.16
2023-03-17T09:52:34.290Z,44.26
2023-03-17T09:53:34.356Z,43.75
2023-03-17T09:54:34.268Z,45.17
2023-03-17T09:55:34.249Z,44.46
2023-03-17T09:56:34.240Z,44.46
2023-03-17T09:57:34.229Z,44.67
2023-03-17T09:58:39.254Z,44.34
2023-03-17T09:59:34.214Z,44.16
2023-03-17T10:00:34.201Z,44.56
2023-03-17T10:01:34.252Z,44.46
2023-03-17T10:02:34.196Z,45.17
2023-03-17T10:03:34.208Z,44.44
2023-03-17T10:04:34.213Z,44.95
2023-03-17T10:05:34.778Z,44.04
2023-03-17T10:06:34.145Z,44.13
2023-03-17T10:07:34.146Z,44.32
2023-03-17T10:08:34.111Z,44.16
2023-03-17T10:09:39.159Z,45.25
2023-03-17T10:10:34.086Z,44.54
2023-03-17T10:11:34.075Z,44.54
2023-03-17T10:12:34.065Z,43.96
2023-03-17T10:13:34.065Z,44.56
2023-03-17T10:14:34.047Z,44.01
2023-03-17T10:15:34.217Z,44.62
2023-03-17T10:16:34.052Z,43.75
2023-03-17T10:17:34.010Z,44.06
2023-03-17T10:18:34.053Z,44.24
2023-03-17T10:19:34.000Z,43.93
2023-03-17T10:20:38.997Z,43.59
2023-03-17T10:21:33.965Z,43.89
2023-03-17T10:22:33.956Z,42.96
2023-03-17T10:23:33.958Z,42.94
2023-03-17T10:24:33.954Z,41.72
2023-03-17T10:25:34.453Z,41.93
2023-03-17T10:26:33.905Z,41.93
2023-03-17T10:27:33.915Z,42.25
2023-03-17T10:28:33.891Z,42.84
2023-03-17T10:29:33.893Z,42.94
2023-03-17T10:30:34.011Z,42.82
2023-03-17T10:31:38.901Z,42.11
2023-03-17T10:32:33.870Z,41.58
2023-03-17T10:33:33.845Z,40.98
2023-03-17T10:34:35.981Z,41.38
2023-03-17T10:35:34.047Z,42.47
2023-03-17T10:36:33.794Z,41.38
2023-03-17T10:37:33.841Z,41.99
2023-03-17T10:38:33.778Z,41.91
2023-03-17T10:39:33.785Z,41.91
2023-03-17T10:40:33.934Z,42.11
2023-03-17T10:41:33.753Z,41.91
2023-03-17T10:42:38.762Z,42.33
2023-03-17T10:43:33.719Z,42.74
2023-03-17T10:44:33.717Z,43.23
2023-03-17T10:45:33.744Z,42.74
2023-03-17T10:46:33.730Z,42.63
2023-03-17T10:47:33.684Z,42.84
2023-03-17T10:48:33.661Z,43.35
2023-03-17T10:49:33.664Z,43.52
2023-03-17T10:50:34.184Z,42.60
2023-03-17T10:51:33.651Z,41.77
2023-03-17T10:52:33.631Z,42.07
2023-03-17T10:53:38.632Z,41.95
2023-03-17T10:54:33.609Z,41.35
2023-03-17T10:55:33.589Z,41.75
2023-03-17T10:56:33.593Z,41.46
2023-03-17T10:57:33.563Z,42.68
2023-03-17T10:58:33.560Z,42.17
2023-03-17T10:59:33.714Z,41.55
2023-03-17T11:00:33.858Z,41.12
2023-03-17T11:01:33.544Z,41.52
2023-03-17T11:02:33.549Z,41.32
2023-03-17T11:03:33.567Z,40.80
2023-03-17T11:04:38.521Z,41.30
2023-03-17T11:05:33.477Z,40.96
2023-03-17T11:06:33.490Z,40.56
2023-03-17T11:07:33.457Z,40.72
2023-03-17T11:08:33.447Z,42.76
2023-03-17T11:09:33.430Z,42.55
2023-03-17T11:10:33.457Z,41.64
2023-03-17T11:11:33.409Z,41.44
2023-03-17T11:12:33.404Z,41.22
2023-03-17T11:13:33.403Z,41.73
2023-03-17T11:14:33.376Z,41.73
2023-03-17T11:15:38.406Z,40.82
2023-03-17T11:16:33.411Z,41.55
2023-03-17T11:17:33.355Z,42.29
2023-03-17T11:18:33.435Z,42.49
2023-03-17T11:19:33.339Z,42.58
2023-03-17T11:20:33.318Z,42.58
2023-03-17T11:21:33.298Z,42.90
2023-03-17T11:22:33.309Z,43.51
2023-03-17T11:23:33.290Z,44.01
2023-03-17T11:24:33.610Z,43.41
2023-03-17T11:25:33.290Z,43.30
2023-03-17T11:26:38.263Z,43.29
2023-03-17T11:27:33.234Z,42.88
2023-03-17T11:28:33.226Z,43.26
2023-03-17T11:29:33.206Z,42.66
2023-03-17T11:30:33.595Z,42.76
2023-03-17T11:31:33.270Z,42.66
2023-03-17T11:32:33.221Z,43.26
2023-03-17T11:33:33.237Z,43.97
2023-03-17T11:34:33.156Z,41.95
2023-03-17T11:35:33.209Z,43.57
2023-03-17T11:36:33.170Z,43.37
2023-03-17T11:37:38.158Z,43.04
2023-03-17T11:38:33.119Z,43.43
2023-03-17T11:39:33.158Z,42.72
2023-03-17T11:40:33.299Z,42.72
2023-03-17T11:41:33.085Z,42.33
2023-03-17T11:42:33.065Z,42.82
2023-03-17T11:43:33.057Z,42.19
2023-03-17T11:44:33.078Z,41.77
2023-03-17T11:45:33.076Z,42.55
2023-03-17T11:46:33.047Z,40.82
2023-03-17T11:47:33.020Z,40.70
2023-03-17T11:48:38.017Z,40.99
2023-03-17T11:49:32.981Z,40.89
2023-03-17T11:50:33.371Z,39.25
2023-03-17T11:51:32.976Z,39.56
2023-03-17T11:52:32.948Z,39.86
2023-03-17T11:53:32.960Z,40.77
2023-03-17T11:54:32.933Z,40.66
2023-03-17T11:55:32.923Z,40.66
2023-03-17T11:56:32.956Z,40.86
2023-03-17T11:57:32.892Z,41.15
2023-03-17T11:58:32.881Z,39.94
2023-03-17T11:59:37.902Z,39.12
2023-03-17T12:00:33.682Z,39.76
2023-03-17T12:01:32.864Z,40.48
2023-03-17T12:02:32.875Z,41.81
2023-03-17T12:03:32.886Z,41.83
2023-03-17T12:04:32.827Z,41.95
2023-03-17T12:05:32.799Z,42.38
2023-03-17T12:06:32.809Z,43.59
2023-03-17T12:07:32.783Z,41.87
2023-03-17T12:08:32.765Z,42.46
2023-03-17T12:09:32.774Z,42.55
2023-03-17T12:10:37.773Z,43.23
2023-03-17T12:11:32.740Z,44.05
2023-03-17T12:12:32.777Z,44.54
2023-03-17T12:13:32.716Z,44.13
2023-03-17T12:14:32.734Z,44.34
2023-03-17T12:15:32.782Z,44.34
2023-03-17T12:16:32.707Z,43.95
2023-03-17T12:17:32.810Z,44.68
2023-03-17T12:18:32.665Z,45.18
2023-03-17T12:19:32.660Z,45.71
2023-03-17T12:20:33.174Z,46.64
2023-03-17T12:21:37.658Z,45.73
2023-03-17T12:22:32.697Z,45.96
2023-03-17T12:23:32.634Z,46.36
2023-03-17T12:24:32.584Z,46.64
2023-03-17T12:25:32.598Z,46.14
2023-03-17T12:26:32.573Z,46.44
2023-03-17T12:27:32.554Z,46.56
2023-03-17T12:28:32.545Z,46.64
2023-03-17T12:29:32.567Z,46.67
2023-03-17T12:30:32.900Z,46.54
2023-03-17T12:31:32.576Z,46.54
2023-03-17T12:32:37.579Z,47.05
2023-03-17T12:33:32.486Z,46.83
2023-03-17T12:34:32.474Z,46.52
2023-03-17T12:35:32.948Z,45.61
2023-03-17T12:36:32.466Z,45.81
2023-03-17T12:37:32.444Z,46.54
2023-03-17T12:38:32.430Z,46.84
2023-03-17T12:39:32.425Z,46.36
2023-03-17T12:40:32.779Z,47.05
2023-03-17T12:41:32.451Z,47.23
2023-03-17T12:42:32.389Z,46.92
2023-03-17T12:43:37.406Z,46.52
2023-03-17T12:44:32.379Z,46.72
2023-03-17T12:45:32.868Z,46.60
2023-03-17T12:46:32.373Z,46.40
2023-03-17T12:47:32.370Z,46.30
2023-03-17T12:48:32.372Z,45.99
2023-03-17T12:49:32.310Z,46.20
2023-03-17T12:50:32.295Z,45.59
2023-03-17T12:51:32.292Z,46.09
2023-03-17T12:52:32.283Z,46.09